createdAt,value
2022-12-04T00:00:46.703Z,99.99
2022-12-04T00:01:46.336Z,99.99
2022-12-04T00:02:47.321Z,99.99
2022-12-04T00:03:46.624Z,99.99
2022-12-04T00:04:47.246Z,99.99
2022-12-04T00:05:47.581Z,99.99
2022-12-04T00:06:47.052Z,99.99
2022-12-04T00:07:47.167Z,99.99
2022-12-04T00:08:47.222Z,99.99
2022-12-04T00:09:47.366Z,99.99
2022-12-04T00:10:49.001Z,99.99
2022-12-04T00:11:47.691Z,99.99
2022-12-04T00:12:47.855Z,99.99
2022-12-04T00:13:47.972Z,99.99
2022-12-04T00:15:23.289Z,99.99
2022-12-04T00:15:49.303Z,99.99
2022-12-04T00:16:48.428Z,99.99
2022-12-04T00:17:48.505Z,99.99
2022-12-04T00:18:48.642Z,99.99
2022-12-04T00:19:48.833Z,99.99
2022-12-04T00:20:48.949Z,99.99
2022-12-04T00:21:49.121Z,99.99
2022-12-04T00:22:49.240Z,99.99
2022-12-04T00:23:49.390Z,99.99
2022-12-04T00:24:49.522Z,99.99
2022-12-04T00:25:49.708Z,99.99
2022-12-04T00:26:49.777Z,99.99
2022-12-04T00:27:49.910Z,99.99
2022-12-04T00:28:50.070Z,99.99
2022-12-04T00:29:50.229Z,99.99
2022-12-04T00:30:50.359Z,99.99
2022-12-04T00:31:50.580Z,99.99
2022-12-04T00:32:50.620Z,99.99
2022-12-04T00:33:50.766Z,99.99
2022-12-04T00:34:50.879Z,99.99
2022-12-04T00:35:51.011Z,99.99
2022-12-04T00:36:51.148Z,99.99
2022-12-04T00:37:51.339Z,99.99
2022-12-04T00:38:51.482Z,99.99
2022-12-04T00:39:51.721Z,99.99
2022-12-04T00:40:51.741Z,99.99
2022-12-04T00:41:51.907Z,99.99
2022-12-04T00:42:51.987Z,99.99
2022-12-04T00:43:52.156Z,99.99
2022-12-04T00:44:52.315Z,99.99
2022-12-04T00:45:52.496Z,99.99
2022-12-04T00:46:52.597Z,99.99
2022-12-04T00:47:52.755Z,99.99
2022-12-04T00:48:52.907Z,99.99
2022-12-04T00:49:53.303Z,99.99
2022-12-04T00:50:53.167Z,99.99
2022-12-04T00:51:54.773Z,99.99
2022-12-04T00:52:53.455Z,99.99
2022-12-04T00:53:53.599Z,99.99
2022-12-04T00:54:53.746Z,99.99
2022-12-04T00:55:53.924Z,99.99
2022-12-04T00:56:53.976Z,99.99
2022-12-04T00:57:59.608Z,99.99
2022-12-04T00:58:55.264Z,99.99
2022-12-04T00:59:54.696Z,99.99
2022-12-04T01:00:54.588Z,99.99
2022-12-04T01:01:54.629Z,99.99
2022-12-04T01:02:54.879Z,99.99
2022-12-04T01:03:54.948Z,99.99
2022-12-04T01:04:55.065Z,99.99
2022-12-04T01:05:55.197Z,99.99
2022-12-04T01:06:58.053Z,99.99
2022-12-04T01:07:56.557Z,99.99
2022-12-04T01:08:55.632Z,99.99
2022-12-04T01:09:56.112Z,99.99
2022-12-04T01:10:55.914Z,99.99
2022-12-04T01:11:56.002Z,99.99
2022-12-04T01:12:56.173Z,99.99
2022-12-04T01:13:56.330Z,99.99
2022-12-04T01:14:56.482Z,99.99
2022-12-04T01:15:56.650Z,99.99
2022-12-04T01:16:56.834Z,99.99
2022-12-04T01:17:56.882Z,99.99
2022-12-04T01:18:57.005Z,99.99
2022-12-04T01:19:57.445Z,99.99
2022-12-04T01:20:57.238Z,99.99
2022-12-04T01:21:58.104Z,99.99
2022-12-04T01:22:57.551Z,99.99
2022-12-04T01:23:57.693Z,99.99
2022-12-04T01:24:57.852Z,99.99
2022-12-04T01:25:57.982Z,99.99
2022-12-04T01:26:58.110Z,99.99
2022-12-04T01:27:58.252Z,99.99
2022-12-04T01:28:58.394Z,99.99
2022-12-04T01:29:58.518Z,99.99
2022-12-04T01:30:58.642Z,99.99
2022-12-04T01:31:58.832Z,99.99
2022-12-04T01:32:59.029Z,99.99
2022-12-04T01:33:59.067Z,99.99
2022-12-04T01:34:59.199Z,99.99
2022-12-04T01:35:59.328Z,99.99
2022-12-04T01:36:59.492Z,99.99
2022-12-04T01:37:59.647Z,99.99
2022-12-04T01:38:59.768Z,99.99
2022-12-04T01:39:59.888Z,99.99
2022-12-04T01:41:00.026Z,99.99
2022-12-04T01:42:00.148Z,99.99
2022-12-04T01:43:00.295Z,99.99
2022-12-04T01:44:00.469Z,99.99
2022-12-04T01:45:00.637Z,99.99
2022-12-04T01:46:00.848Z,99.99
2022-12-04T01:47:00.919Z,99.99
2022-12-04T01:48:01.065Z,99.99
2022-12-04T01:49:01.217Z,99.99
2022-12-04T01:50:01.364Z,99.99
2022-12-04T01:51:01.496Z,99.99
2022-12-04T01:52:01.619Z,99.99
2022-12-04T01:53:01.759Z,99.99
2022-12-04T01:54:01.858Z,99.99
2022-12-04T01:55:01.977Z,99.99
2022-12-04T01:56:02.195Z,99.99
2022-12-04T01:57:02.220Z,99.99
2022-12-04T01:58:02.386Z,99.99
2022-12-04T01:59:02.500Z,99.99
2022-12-04T02:00:02.597Z,99.99
2022-12-04T02:01:08.198Z,99.99
2022-12-04T02:02:04.008Z,99.99
2022-12-04T02:03:03.044Z,99.99
2022-12-04T02:04:03.093Z,99.99
2022-12-04T02:05:03.267Z,99.99
2022-12-04T02:06:03.435Z,99.99
2022-12-04T02:07:03.523Z,99.99
2022-12-04T02:08:03.709Z,99.99
2022-12-04T02:09:03.762Z,99.99
2022-12-04T02:10:03.923Z,99.99
2022-12-04T02:11:04.052Z,99.99
2022-12-04T02:12:04.174Z,99.99
2022-12-04T02:13:04.297Z,99.99
2022-12-04T02:14:04.445Z,99.99
2022-12-04T02:15:04.583Z,99.99
2022-12-04T02:16:04.819Z,99.99
2022-12-04T02:17:04.895Z,99.99
2022-12-04T02:18:05.000Z,99.99
2022-12-04T02:19:05.092Z,99.99
2022-12-04T02:20:05.304Z,99.99
2022-12-04T02:21:05.331Z,99.99
2022-12-04T02:22:05.460Z,99.99
2022-12-04T02:23:05.632Z,99.99
2022-12-04T02:24:05.756Z,99.99
2022-12-04T02:25:05.951Z,99.99
2022-12-04T02:26:06.107Z,99.99
2022-12-04T02:27:06.153Z,99.99
2022-12-04T02:28:06.300Z,99.99
2022-12-04T02:29:06.428Z,99.99
2022-12-04T02:30:06.594Z,99.99
2022-12-04T02:31:06.826Z,99.99
2022-12-04T02:32:06.907Z,99.99
2022-12-04T02:33:07.008Z,99.99
2022-12-04T02:34:07.149Z,99.99
2022-12-04T02:35:07.533Z,99.99
2022-12-04T02:36:07.478Z,99.99
2022-12-04T02:37:07.608Z,99.99
2022-12-04T02:38:07.810Z,99.99
2022-12-04T02:39:07.909Z,99.99
2022-12-04T02:40:08.056Z,99.99
2022-12-04T02:41:08.213Z,99.99
2022-12-04T02:42:08.337Z,99.99
2022-12-04T02:43:08.509Z,99.99
2022-12-04T02:44:08.656Z,99.99
2022-12-04T02:45:08.800Z,99.99
2022-12-04T02:46:09.009Z,99.99
2022-12-04T02:47:09.076Z,99.99
2022-12-04T02:48:09.214Z,99.99
2022-12-04T02:49:09.345Z,99.99
2022-12-04T02:50:09.527Z,99.99
2022-12-04T02:51:09.656Z,99.99
2022-12-04T02:52:09.794Z,99.99
2022-12-04T02:53:09.941Z,99.99
2022-12-04T02:54:10.075Z,99.99
2022-12-04T02:55:10.255Z,99.99
2022-12-04T02:56:10.385Z,99.99
2022-12-04T02:57:10.506Z,99.99
2022-12-04T02:58:10.647Z,99.99
2022-12-04T02:59:10.787Z,99.99
2022-12-04T03:00:11.072Z,99.99
2022-12-04T03:01:11.095Z,99.99
2022-12-04T03:02:11.229Z,99.99
2022-12-04T03:03:11.263Z,99.99
2022-12-04T03:04:11.406Z,99.99
2022-12-04T03:05:11.598Z,99.99
2022-12-04T03:06:11.637Z,99.99
2022-12-04T03:07:11.846Z,99.99
2022-12-04T03:08:11.975Z,99.99
2022-12-04T03:09:12.026Z,99.99
2022-12-04T03:10:12.163Z,99.99
2022-12-04T03:11:12.343Z,99.99
2022-12-04T03:12:12.553Z,99.99
2022-12-04T03:13:12.665Z,99.99
2022-12-04T03:14:12.765Z,99.99
2022-12-04T03:15:12.976Z,99.99
2022-12-04T03:16:13.056Z,99.99
2022-12-04T03:17:13.220Z,99.99
2022-12-04T03:18:13.265Z,99.99
2022-12-04T03:19:13.383Z,99.99
2022-12-04T03:20:13.562Z,99.99
2022-12-04T03:21:13.688Z,99.99
2022-12-04T03:22:13.874Z,99.99
2022-12-04T03:23:13.942Z,99.99
2022-12-04T03:24:14.064Z,99.99
2022-12-04T03:25:14.190Z,99.99
2022-12-04T03:26:14.308Z,99.99
2022-12-04T03:27:14.548Z,99.99
2022-12-04T03:28:14.610Z,99.99
2022-12-04T03:29:14.775Z,99.99
2022-12-04T03:30:14.915Z,99.99
2022-12-04T03:31:15.129Z,99.99
2022-12-04T03:32:15.229Z,99.99
2022-12-04T03:33:15.391Z,99.99
2022-12-04T03:34:15.562Z,99.99
2022-12-04T03:35:15.722Z,99.99
2022-12-04T03:36:15.885Z,99.99
2022-12-04T03:37:16.005Z,99.99
2022-12-04T03:38:16.132Z,99.99
2022-12-04T03:39:16.252Z,99.99
2022-12-04T03:40:16.386Z,99.99
2022-12-04T03:41:16.528Z,99.99
2022-12-04T03:42:16.679Z,99.99
2022-12-04T03:43:16.843Z,99.99
2022-12-04T03:44:16.969Z,99.99
2022-12-04T03:45:17.078Z,99.99
2022-12-04T03:46:17.336Z,99.99
2022-12-04T03:47:17.378Z,99.99
2022-12-04T03:48:22.721Z,99.99
2022-12-04T03:49:18.680Z,99.99
2022-12-04T03:50:17.861Z,99.99
2022-12-04T03:51:17.977Z,99.99
2022-12-04T03:52:18.163Z,99.99
2022-12-04T03:53:18.214Z,99.99
2022-12-04T03:54:18.336Z,99.99
2022-12-04T03:55:18.459Z,99.99
2022-12-04T03:56:18.576Z,99.99
2022-12-04T03:57:18.704Z,99.99
2022-12-04T03:58:18.866Z,99.99
2022-12-04T03:59:19.002Z,99.99
2022-12-04T04:00:19.144Z,99.99
2022-12-04T04:01:19.280Z,99.99
2022-12-04T04:02:19.456Z,99.99
2022-12-04T04:03:19.528Z,99.99
2022-12-04T04:04:19.656Z,99.99
2022-12-04T04:05:19.776Z,99.99
2022-12-04T04:06:20.657Z,99.99
2022-12-04T04:07:20.013Z,99.99
2022-12-04T04:08:20.181Z,99.99
2022-12-04T04:09:20.247Z,99.99
2022-12-04T04:10:20.365Z,99.99
2022-12-04T04:11:20.486Z,99.99
2022-12-04T04:12:20.622Z,99.99
2022-12-04T04:13:20.763Z,99.99
2022-12-04T04:14:20.892Z,99.99
2022-12-04T04:15:21.010Z,99.99
2022-12-04T04:16:21.176Z,99.99
2022-12-04T04:17:21.304Z,99.99
2022-12-04T04:18:22.905Z,99.99
2022-12-04T04:19:21.629Z,99.99
2022-12-04T04:20:21.757Z,99.99
2022-12-04T04:21:21.904Z,99.99
2022-12-04T04:22:22.049Z,99.99
2022-12-04T04:23:22.185Z,99.99
2022-12-04T04:24:22.311Z,99.99
2022-12-04T04:25:22.444Z,99.99
2022-12-04T04:26:22.563Z,99.99
2022-12-04T04:27:22.693Z,99.99
2022-12-04T04:28:22.840Z,99.99
2022-12-04T04:29:22.963Z,99.99
2022-12-04T04:30:23.079Z,99.99
2022-12-04T04:31:23.255Z,99.99
2022-12-04T04:32:23.320Z,99.99
2022-12-04T04:33:23.469Z,99.99
2022-12-04T04:34:23.608Z,99.99
2022-12-04T04:35:23.759Z,99.99
2022-12-04T04:36:23.887Z,99.99
2022-12-04T04:37:24.020Z,99.99
2022-12-04T04:38:24.129Z,99.99
2022-12-04T04:39:24.289Z,99.99
2022-12-04T04:40:24.399Z,99.99
2022-12-04T04:41:24.528Z,99.99
2022-12-04T04:42:24.650Z,99.99
2022-12-04T04:43:24.798Z,99.99
2022-12-04T04:44:25.017Z,99.99
2022-12-04T04:45:25.060Z,99.99
2022-12-04T04:46:25.259Z,99.99
2022-12-04T04:47:25.333Z,99.99
2022-12-04T04:48:25.449Z,99.99
2022-12-04T04:49:25.597Z,99.99
2022-12-04T04:50:25.726Z,99.99
2022-12-04T04:51:25.859Z,99.99
2022-12-04T04:52:25.997Z,99.99
2022-12-04T04:53:26.105Z,99.99
2022-12-04T04:54:26.255Z,99.99
2022-12-04T04:55:26.388Z,99.99
2022-12-04T04:56:26.506Z,99.99
2022-12-04T04:57:26.625Z,99.99
2022-12-04T04:58:26.747Z,99.99
2022-12-04T04:59:26.899Z,99.99
2022-12-04T05:00:27.050Z,99.99
2022-12-04T05:01:27.259Z,99.99
2022-12-04T05:02:27.424Z,99.99
2022-12-04T05:03:27.527Z,99.99
2022-12-04T05:04:27.706Z,99.99
2022-12-04T05:05:27.794Z,99.99
2022-12-04T05:06:31.996Z,99.99
2022-12-04T05:07:28.133Z,99.99
2022-12-04T05:08:28.183Z,99.99
2022-12-04T05:09:28.316Z,99.99
2022-12-04T05:10:28.534Z,99.99
2022-12-04T05:11:28.574Z,99.99
2022-12-04T05:12:28.726Z,99.99
2022-12-04T05:13:28.858Z,99.99
2022-12-04T05:14:29.003Z,99.99
2022-12-04T05:15:29.135Z,99.99
2022-12-04T05:16:29.359Z,99.99
2022-12-04T05:17:29.452Z,99.99
2022-12-04T05:18:29.571Z,99.99
2022-12-04T05:19:30.185Z,99.99
2022-12-04T05:20:29.857Z,99.99
2022-12-04T05:21:30.014Z,99.99
2022-12-04T05:22:30.132Z,99.99
2022-12-04T05:23:30.253Z,99.99
2022-12-04T05:24:30.385Z,99.99
2022-12-04T05:25:30.523Z,99.99
2022-12-04T05:26:30.653Z,99.99
2022-12-04T05:27:30.780Z,99.99
2022-12-04T05:28:30.894Z,99.99
2022-12-04T05:29:35.656Z,99.99
2022-12-04T05:30:32.191Z,99.99
2022-12-04T05:31:31.354Z,99.99
2022-12-04T05:32:31.422Z,99.99
2022-12-04T05:33:31.550Z,99.99
2022-12-04T05:34:31.661Z,99.99
2022-12-04T05:35:31.794Z,99.99
2022-12-04T05:36:31.926Z,99.99
2022-12-04T05:37:32.082Z,99.99
2022-12-04T05:38:32.243Z,99.99
2022-12-04T05:39:32.410Z,99.99
2022-12-04T05:40:32.462Z,99.99
2022-12-04T05:41:32.651Z,99.99
2022-12-04T05:42:32.701Z,99.99
2022-12-04T05:43:32.863Z,99.99
2022-12-04T05:44:33.017Z,99.99
2022-12-04T05:45:33.130Z,99.99
2022-12-04T05:46:33.348Z,99.99
2022-12-04T05:47:33.392Z,99.99
2022-12-04T05:48:33.477Z,99.99
2022-12-04T05:49:33.599Z,99.99
2022-12-04T05:50:33.720Z,99.99
2022-12-04T05:51:33.896Z,99.99
2022-12-04T05:52:34.079Z,99.99
2022-12-04T05:53:34.147Z,99.99
2022-12-04T05:54:34.288Z,99.99
2022-12-04T05:55:34.519Z,99.99
2022-12-04T05:56:34.713Z,99.99
2022-12-04T05:57:34.762Z,99.99
2022-12-04T05:58:34.889Z,99.99
2022-12-04T05:59:35.028Z,99.99
2022-12-04T06:00:35.176Z,99.99
2022-12-04T06:01:35.424Z,99.99
2022-12-04T06:02:35.686Z,99.99
2022-12-04T06:03:35.605Z,99.99
2022-12-04T06:04:35.726Z,99.99
2022-12-04T06:05:35.865Z,99.99
2022-12-04T06:06:36.005Z,99.99
2022-12-04T06:07:36.176Z,99.99
2022-12-04T06:08:36.296Z,99.99
2022-12-04T06:09:36.424Z,99.99
2022-12-04T06:10:36.546Z,99.99
2022-12-04T06:11:36.685Z,99.99
2022-12-04T06:12:36.835Z,99.99
2022-12-04T06:13:36.988Z,99.99
2022-12-04T06:14:39.829Z,99.99
2022-12-04T06:15:37.293Z,99.99
2022-12-04T06:16:37.515Z,99.99
2022-12-04T06:17:37.566Z,99.99
2022-12-04T06:18:37.693Z,99.99
2022-12-04T06:19:37.829Z,99.99
2022-12-04T06:20:38.001Z,99.99
2022-12-04T06:21:38.087Z,99.99
2022-12-04T06:22:38.222Z,99.99
2022-12-04T06:23:38.381Z,99.99
2022-12-04T06:24:38.530Z,99.99
2022-12-04T06:25:38.651Z,99.99
2022-12-04T06:26:52.020Z,99.99
2022-12-04T06:27:39.981Z,99.99
2022-12-04T06:28:39.152Z,99.99
2022-12-04T06:29:39.303Z,99.99
2022-12-04T06:30:39.438Z,99.99
2022-12-04T06:31:39.667Z,99.99
2022-12-04T06:32:39.784Z,99.99
2022-12-04T06:33:39.859Z,99.99
2022-12-04T06:34:39.991Z,99.99
2022-12-04T06:35:40.131Z,99.99
2022-12-04T06:36:40.292Z,99.99
2022-12-04T06:37:40.426Z,99.99
2022-12-04T06:38:40.590Z,99.99
2022-12-04T06:39:40.720Z,99.99
2022-12-04T06:40:40.872Z,99.99
2022-12-04T06:41:41.001Z,99.99
2022-12-04T06:42:41.168Z,99.99
2022-12-04T06:43:41.351Z,99.99
2022-12-04T06:44:41.484Z,99.99
2022-12-04T06:45:41.676Z,99.99
2022-12-04T06:46:46.426Z,99.99
2022-12-04T06:47:42.891Z,99.99
2022-12-04T06:48:42.022Z,99.99
2022-12-04T06:49:42.231Z,99.99
2022-12-04T06:50:42.288Z,99.99
2022-12-04T06:51:43.230Z,99.99
2022-12-04T06:52:50.090Z,99.99
2022-12-04T06:53:42.718Z,99.99
2022-12-04T06:54:42.869Z,99.99
2022-12-04T06:55:43.023Z,99.99
2022-12-04T06:56:43.164Z,99.99
2022-12-04T06:57:43.309Z,99.99
2022-12-04T06:58:43.419Z,99.99
2022-12-04T06:59:43.570Z,99.99
2022-12-04T07:00:43.733Z,99.99
2022-12-04T07:01:43.857Z,99.99
2022-12-04T07:02:44.015Z,99.99
2022-12-04T07:03:50.766Z,99.99
2022-12-04T07:04:45.257Z,99.99
2022-12-04T07:05:44.389Z,99.99
2022-12-04T07:06:44.538Z,99.99
2022-12-04T07:07:45.955Z,99.99
2022-12-04T07:08:44.820Z,99.99
2022-12-04T07:09:44.957Z,99.99
2022-12-04T07:10:45.089Z,99.99
2022-12-04T07:11:45.250Z,99.99
2022-12-04T07:12:45.379Z,99.99
2022-12-04T07:13:45.526Z,99.99
2022-12-04T07:14:45.618Z,99.99
2022-12-04T07:15:45.738Z,99.99
2022-12-04T07:16:45.923Z,99.99
2022-12-04T07:17:46.036Z,99.99
2022-12-04T07:18:46.147Z,99.99
2022-12-04T07:19:46.286Z,99.99
2022-12-04T07:20:46.415Z,99.99
2022-12-04T07:21:46.552Z,99.99
2022-12-04T07:22:48.156Z,99.99
2022-12-04T07:23:46.915Z,99.99
2022-12-04T07:24:47.039Z,99.99
2022-12-04T07:25:47.144Z,99.99
2022-12-04T07:26:47.223Z,99.99
2022-12-04T07:27:47.355Z,99.99
2022-12-04T07:28:47.513Z,99.99
2022-12-04T07:29:47.965Z,99.99
2022-12-04T07:30:47.832Z,99.99
2022-12-04T07:31:48.002Z,99.99
2022-12-04T07:32:48.085Z,99.99
2022-12-04T07:33:48.273Z,99.99
2022-12-04T07:34:48.464Z,99.99
2022-12-04T07:35:48.552Z,99.99
2022-12-04T07:36:48.693Z,99.99
2022-12-04T07:37:48.846Z,99.99
2022-12-04T07:38:48.985Z,99.99
2022-12-04T07:39:49.140Z,99.99
2022-12-04T07:40:49.315Z,99.99
2022-12-04T07:41:49.474Z,99.99
2022-12-04T07:42:49.652Z,99.99
2022-12-04T07:43:49.813Z,99.99
2022-12-04T07:44:49.983Z,99.99
2022-12-04T07:45:50.223Z,99.99
2022-12-04T07:46:50.243Z,99.99
2022-12-04T07:47:50.411Z,99.99
2022-12-04T07:48:50.554Z,99.99
2022-12-04T07:49:50.721Z,99.99
2022-12-04T07:50:50.930Z,99.99
2022-12-04T07:51:51.048Z,99.99
2022-12-04T07:52:51.141Z,99.99
2022-12-04T07:53:51.310Z,99.99
2022-12-04T07:54:51.485Z,99.99
2022-12-04T07:55:51.664Z,99.99
2022-12-04T07:56:51.703Z,99.99
2022-12-04T07:57:51.810Z,99.99
2022-12-04T07:58:51.999Z,99.99
2022-12-04T07:59:52.176Z,99.99
2022-12-04T08:00:53.027Z,99.99
2022-12-04T08:01:52.438Z,99.99
2022-12-04T08:02:52.492Z,99.99
2022-12-04T08:03:52.649Z,99.99
2022-12-04T08:04:52.838Z,99.99
2022-12-04T08:05:52.947Z,99.99
2022-12-04T08:06:53.012Z,99.99
2022-12-04T08:07:53.215Z,99.99
2022-12-04T08:08:53.295Z,99.99
2022-12-04T08:09:53.647Z,99.99
2022-12-04T08:10:53.642Z,99.99
2022-12-04T08:11:53.788Z,99.99
2022-12-04T08:12:53.936Z,99.99
2022-12-04T08:13:54.036Z,99.99
2022-12-04T08:14:54.209Z,99.99
2022-12-04T08:15:54.398Z,99.99
2022-12-04T08:16:54.574Z,99.99
2022-12-04T08:17:54.616Z,99.99
2022-12-04T08:18:54.824Z,99.99
2022-12-04T08:19:55.141Z,99.99
2022-12-04T08:20:55.057Z,99.99
2022-12-04T08:21:55.271Z,99.99
2022-12-04T08:22:55.413Z,99.99
2022-12-04T08:23:55.557Z,99.99
2022-12-04T08:24:55.674Z,99.99
2022-12-04T08:25:55.778Z,99.99
2022-12-04T08:26:55.937Z,99.99
2022-12-04T08:27:56.093Z,99.99
2022-12-04T08:28:56.278Z,99.99
2022-12-04T08:29:56.701Z,99.99
2022-12-04T08:30:56.606Z,99.99
2022-12-04T08:31:56.687Z,99.99
2022-12-04T08:32:56.815Z,99.99
2022-12-04T08:33:56.994Z,99.99
2022-12-04T08:34:57.034Z,99.99
2022-12-04T08:35:57.213Z,99.99
2022-12-04T08:36:57.335Z,99.99
2022-12-04T08:37:57.415Z,99.99
2022-12-04T08:38:57.562Z,99.99
2022-12-04T08:39:57.973Z,99.99
2022-12-04T08:40:57.863Z,99.99
2022-12-04T08:41:58.028Z,99.99
2022-12-04T08:42:58.165Z,99.99
2022-12-04T08:43:58.343Z,99.99
2022-12-04T08:44:58.503Z,99.99
2022-12-04T08:45:58.730Z,99.99
2022-12-04T08:46:58.772Z,99.99
2022-12-04T08:47:58.884Z,99.99
2022-12-04T08:48:59.012Z,99.99
2022-12-04T08:49:59.106Z,99.99
2022-12-04T08:50:59.265Z,99.99
2022-12-04T08:51:59.415Z,99.99
2022-12-04T08:52:59.549Z,99.99
2022-12-04T08:53:59.671Z,99.96
2022-12-04T08:54:59.834Z,99.99
2022-12-04T08:55:59.978Z,99.99
2022-12-04T08:57:00.139Z,99.96
2022-12-04T08:58:00.321Z,99.96
2022-12-04T08:59:00.454Z,99.96
2022-12-04T09:00:00.619Z,99.99
2022-12-04T09:01:00.825Z,99.96
2022-12-04T09:02:01.042Z,99.96
2022-12-04T09:03:01.070Z,99.96
2022-12-04T09:04:01.273Z,99.99
2022-12-04T09:05:01.349Z,99.96
2022-12-04T09:06:01.512Z,99.99
2022-12-04T09:07:01.677Z,99.99
2022-12-04T09:08:01.825Z,99.96
2022-12-04T09:09:01.929Z,99.96
2022-12-04T09:10:02.133Z,99.85
2022-12-04T09:11:02.223Z,99.75
2022-12-04T09:12:03.043Z,99.75
2022-12-04T09:13:02.430Z,99.85
2022-12-04T09:14:02.602Z,99.75
2022-12-04T09:15:02.802Z,99.65
2022-12-04T09:16:02.949Z,99.65
2022-12-04T09:17:02.985Z,99.65
2022-12-04T09:18:03.079Z,99.75
2022-12-04T09:19:03.279Z,99.75
2022-12-04T09:20:03.780Z,99.65
2022-12-04T09:21:03.566Z,99.75
2022-12-04T09:22:03.679Z,99.75
2022-12-04T09:23:04.998Z,99.65
2022-12-04T09:24:03.959Z,99.65
2022-12-04T09:25:04.068Z,99.44
2022-12-04T09:26:04.188Z,99.44
2022-12-04T09:27:04.346Z,99.50
2022-12-04T09:28:04.494Z,99.50
2022-12-04T09:29:04.708Z,99.50
2022-12-04T09:30:04.820Z,99.60
2022-12-04T09:31:04.986Z,99.71
2022-12-04T09:32:05.035Z,99.60
2022-12-04T09:33:05.248Z,99.60
2022-12-04T09:34:05.344Z,99.50
2022-12-04T09:35:05.488Z,99.50
2022-12-04T09:36:05.634Z,99.50
2022-12-04T09:37:05.736Z,99.50
2022-12-04T09:38:05.885Z,99.50
2022-12-04T09:39:06.056Z,99.40
2022-12-04T09:40:06.235Z,99.29
2022-12-04T09:41:06.361Z,99.29
2022-12-04T09:42:07.925Z,99.29
2022-12-04T09:43:06.573Z,99.29
2022-12-04T09:44:06.711Z,99.40
2022-12-04T09:45:06.888Z,99.29
2022-12-04T09:46:07.070Z,99.29
2022-12-04T09:47:07.316Z,99.18
2022-12-04T09:48:07.304Z,99.08
2022-12-04T09:49:07.486Z,98.97
2022-12-04T09:50:07.566Z,99.08
2022-12-04T09:51:07.752Z,99.08
2022-12-04T09:52:07.913Z,99.08
2022-12-04T09:53:08.102Z,99.08
2022-12-04T09:54:08.194Z,99.04
2022-12-04T09:55:08.398Z,99.04
2022-12-04T09:56:08.495Z,99.04
2022-12-04T09:57:08.673Z,99.14
2022-12-04T09:58:08.762Z,99.04
2022-12-04T09:59:08.923Z,98.93
2022-12-04T10:00:09.030Z,98.83
2022-12-04T10:01:09.168Z,98.83
2022-12-04T10:02:09.435Z,98.83
2022-12-04T10:03:09.672Z,98.83
2022-12-04T10:04:09.691Z,98.83
2022-12-04T10:05:09.806Z,98.83
2022-12-04T10:06:09.935Z,98.93
2022-12-04T10:07:10.104Z,98.83
2022-12-04T10:08:10.282Z,98.93
2022-12-04T10:09:10.339Z,98.83
2022-12-04T10:10:10.490Z,98.83
2022-12-04T10:11:10.628Z,98.83
2022-12-04T10:12:10.812Z,98.93
2022-12-04T10:13:10.871Z,98.83
2022-12-04T10:14:11.067Z,98.72
2022-12-04T10:15:11.141Z,98.83
2022-12-04T10:16:11.278Z,98.62
2022-12-04T10:17:11.447Z,98.62
2022-12-04T10:18:11.609Z,98.72
2022-12-04T10:19:11.768Z,98.72
2022-12-04T10:20:11.897Z,98.62
2022-12-04T10:21:12.028Z,98.62
2022-12-04T10:22:12.160Z,98.72
2022-12-04T10:23:14.185Z,98.72
2022-12-04T10:24:12.457Z,98.83
2022-12-04T10:25:12.588Z,98.83
2022-12-04T10:26:12.715Z,98.83
2022-12-04T10:27:12.874Z,98.83
2022-12-04T10:28:13.096Z,98.72
2022-12-04T10:29:13.151Z,98.72
2022-12-04T10:30:13.282Z,98.83
2022-12-04T10:31:13.451Z,98.83
2022-12-04T10:32:13.536Z,98.83
2022-12-04T10:33:13.677Z,98.78
2022-12-04T10:34:13.767Z,98.88
2022-12-04T10:35:13.917Z,98.88
2022-12-04T10:36:14.005Z,98.78
2022-12-04T10:37:14.147Z,98.68
2022-12-04T10:38:14.307Z,98.57
2022-12-04T10:39:14.432Z,98.68
2022-12-04T10:40:14.575Z,98.68
2022-12-04T10:41:15.345Z,98.78
2022-12-04T10:42:14.867Z,98.78
2022-12-04T10:43:15.014Z,98.78
2022-12-04T10:44:15.126Z,98.78
2022-12-04T10:45:15.254Z,98.68
2022-12-04T10:46:15.442Z,98.78
2022-12-04T10:47:15.577Z,98.78
2022-12-04T10:48:15.648Z,98.68
2022-12-04T10:49:15.792Z,98.88
2022-12-04T10:50:15.936Z,98.78
2022-12-04T10:51:16.082Z,98.88
2022-12-04T10:52:16.238Z,98.78
2022-12-04T10:53:16.375Z,98.88
2022-12-04T10:54:16.535Z,98.88
2022-12-04T10:55:16.664Z,98.88
2022-12-04T10:56:16.826Z,98.88
2022-12-04T10:57:16.973Z,98.88
2022-12-04T10:58:17.124Z,98.88
2022-12-04T10:59:17.252Z,98.99
2022-12-04T11:00:17.380Z,98.88
2022-12-04T11:01:17.537Z,98.99
2022-12-04T11:02:17.726Z,98.99
2022-12-04T11:03:17.848Z,98.99
2022-12-04T11:04:17.932Z,98.99
2022-12-04T11:05:18.074Z,98.99
2022-12-04T11:06:18.256Z,98.88
2022-12-04T11:07:18.415Z,98.78
2022-12-04T11:08:19.998Z,98.99
2022-12-04T11:09:18.687Z,99.10
2022-12-04T11:10:18.933Z,98.88
2022-12-04T11:11:19.003Z,98.88
2022-12-04T11:12:19.060Z,98.78
2022-12-04T11:13:19.201Z,98.88
2022-12-04T11:14:19.354Z,98.74
2022-12-04T11:15:19.488Z,98.74
2022-12-04T11:16:19.766Z,98.74
2022-12-04T11:17:19.735Z,98.53
2022-12-04T11:18:19.858Z,98.43
2022-12-04T11:19:20.028Z,98.43
2022-12-04T11:20:20.089Z,98.43
2022-12-04T11:21:20.250Z,98.53
2022-12-04T11:22:20.398Z,98.53
2022-12-04T11:23:20.511Z,98.43
2022-12-04T11:24:20.618Z,98.22
2022-12-04T11:25:20.728Z,98.32
2022-12-04T11:26:20.827Z,98.32
2022-12-04T11:27:20.969Z,98.32
2022-12-04T11:28:41.147Z,98.32
2022-12-04T11:29:22.191Z,98.11
2022-12-04T11:30:21.319Z,98.22
2022-12-04T11:31:21.513Z,98.32
2022-12-04T11:32:21.619Z,98.43
2022-12-04T11:33:21.781Z,98.53
2022-12-04T11:34:21.965Z,98.22
2022-12-04T11:35:22.048Z,98.32
2022-12-04T11:36:22.200Z,98.43
2022-12-04T11:37:22.325Z,98.22
2022-12-04T11:38:22.486Z,98.22
2022-12-04T11:39:22.587Z,98.11
2022-12-04T11:40:22.736Z,98.11
2022-12-04T11:41:22.866Z,98.11
2022-12-04T11:42:22.997Z,98.11
2022-12-04T11:43:23.148Z,97.91
2022-12-04T11:44:23.291Z,98.01
2022-12-04T11:45:23.435Z,97.91
2022-12-04T11:46:23.639Z,98.01
2022-12-04T11:47:23.766Z,97.91
2022-12-04T11:48:23.917Z,97.80
2022-12-04T11:49:24.075Z,97.70
2022-12-04T11:50:24.223Z,97.59
2022-12-04T11:51:24.365Z,97.70
2022-12-04T11:52:24.522Z,97.70
2022-12-04T11:53:24.663Z,97.70
2022-12-04T11:54:24.805Z,97.80
2022-12-04T11:55:28.899Z,97.70
2022-12-04T11:56:25.116Z,97.70
2022-12-04T11:57:25.274Z,97.86
2022-12-04T11:58:25.413Z,97.65
2022-12-04T11:59:25.514Z,97.65
2022-12-04T12:00:25.669Z,97.65
2022-12-04T12:01:25.814Z,97.55
2022-12-04T12:02:26.037Z,97.55
2022-12-04T12:03:26.276Z,97.59
2022-12-04T12:04:26.268Z,97.70
2022-12-04T12:05:26.410Z,97.75
2022-12-04T12:06:26.555Z,97.65
2022-12-04T12:07:26.652Z,97.59
2022-12-04T12:08:26.790Z,97.49
2022-12-04T12:09:26.982Z,97.59
2022-12-04T12:10:27.107Z,97.70
2022-12-04T12:11:27.244Z,97.80
2022-12-04T12:12:27.361Z,97.80
2022-12-04T12:13:27.518Z,97.70
2022-12-04T12:14:27.671Z,97.70
2022-12-04T12:15:27.811Z,97.59
2022-12-04T12:16:27.958Z,97.70
2022-12-04T12:17:28.114Z,97.80
2022-12-04T12:18:28.264Z,97.91
2022-12-04T12:19:28.418Z,97.70
2022-12-04T12:20:28.564Z,97.75
2022-12-04T12:21:28.764Z,97.96
2022-12-04T12:22:28.813Z,97.65
2022-12-04T12:23:28.954Z,97.75
2022-12-04T12:24:29.119Z,97.75
2022-12-04T12:25:29.231Z,97.44
2022-12-04T12:26:29.360Z,97.55
2022-12-04T12:27:29.499Z,97.55
2022-12-04T12:28:29.666Z,97.24
2022-12-04T12:29:29.841Z,97.34
2022-12-04T12:30:30.097Z,97.44
2022-12-04T12:31:30.201Z,97.34
2022-12-04T12:32:30.304Z,97.24
2022-12-04T12:33:30.429Z,97.34
2022-12-04T12:34:30.610Z,97.34
2022-12-04T12:35:32.230Z,97.34
2022-12-04T12:36:30.948Z,97.34
2022-12-04T12:37:31.132Z,97.44
2022-12-04T12:38:31.236Z,97.44
2022-12-04T12:39:31.390Z,97.44
2022-12-04T12:40:31.437Z,97.55
2022-12-04T12:41:31.616Z,97.44
2022-12-04T12:42:31.696Z,97.34
2022-12-04T12:43:32.012Z,97.34
2022-12-04T12:44:32.090Z,97.65
2022-12-04T12:45:32.238Z,97.44
2022-12-04T12:46:32.369Z,97.44
2022-12-04T12:47:32.493Z,97.34
2022-12-04T12:48:32.641Z,97.34
2022-12-04T12:49:32.818Z,97.24
2022-12-04T12:50:32.925Z,97.13
2022-12-04T12:51:33.091Z,97.24
2022-12-04T12:52:33.298Z,97.13
2022-12-04T12:53:40.394Z,97.13
2022-12-04T12:54:34.214Z,97.24